createdAt,value
2024-03-12T00:01:01.018Z,3.17
2024-03-12T00:03:28.839Z,2.90
2024-03-12T00:06:00.415Z,4.07
2024-03-12T00:08:30.878Z,3.60
2024-03-12T00:10:58.640Z,3.50
2024-03-12T00:13:27.320Z,4.03
2024-03-12T00:15:55.574Z,3.53
2024-03-12T00:18:26.197Z,5.73
2024-03-12T00:20:56.607Z,3.57
2024-03-12T00:23:23.890Z,2.70
2024-03-12T00:25:51.037Z,2.40
2024-03-12T00:28:18.080Z,2.93
2024-03-12T00:30:45.761Z,3.53
2024-03-12T00:33:13.081Z,3.00
2024-03-12T00:35:44.444Z,2.93
2024-03-12T00:38:12.126Z,4.70
2024-03-12T00:40:39.948Z,2.63
2024-03-12T00:43:08.208Z,2.57
2024-03-12T00:45:39.721Z,2.90
2024-03-12T00:48:08.187Z,4.10
2024-03-12T00:50:35.460Z,2.57
2024-03-12T00:53:03.062Z,3.65
2024-03-12T00:55:30.484Z,3.30
2024-03-12T00:57:59.193Z,3.20
2024-03-12T01:00:26.891Z,4.60
2024-03-12T01:02:55.256Z,5.80
2024-03-12T01:05:25.520Z,4.83
2024-03-12T01:07:56.028Z,3.70
2024-03-12T01:10:23.274Z,2.80
2024-03-12T01:12:50.889Z,6.37
2024-03-12T01:15:19.334Z,3.23
2024-03-12T01:17:47.338Z,3.47
2024-03-12T01:20:17.943Z,3.80
2024-03-12T01:22:45.581Z,4.80
2024-03-12T01:25:13.310Z,4.30
2024-03-12T01:27:45.014Z,3.53
2024-03-12T01:30:15.424Z,4.70
2024-03-12T01:32:43.720Z,3.97
2024-03-12T01:35:13.611Z,3.40
2024-03-12T01:37:44.417Z,4.30
2024-03-12T01:40:21.388Z,3.60
2024-03-12T01:42:53.355Z,4.63
2024-03-12T01:45:23.074Z,3.57
2024-03-12T01:47:51.173Z,4.13
2024-03-12T01:50:19.267Z,3.93
2024-03-12T01:52:47.308Z,6.40
2024-03-12T01:55:15.302Z,4.00
2024-03-12T01:57:43.053Z,2.90
2024-03-12T02:00:16.762Z,3.10
2024-03-12T02:02:45.132Z,5.68
2024-03-12T02:05:12.681Z,4.17
2024-03-12T02:07:40.892Z,3.30
2024-03-12T02:10:09.351Z,2.90
2024-03-12T02:12:36.543Z,3.10
2024-03-12T02:15:04.682Z,4.53
2024-03-12T02:17:31.911Z,2.83
2024-03-12T02:20:01.042Z,3.67
2024-03-12T02:22:31.203Z,3.13
2024-03-12T02:24:59.983Z,5.40
2024-03-12T02:27:27.392Z,3.97
2024-03-12T02:29:55.423Z,3.90
2024-03-12T02:32:23.895Z,2.90
2024-03-12T02:34:51.568Z,2.77
2024-03-12T02:37:18.773Z,3.77
2024-03-12T02:39:45.852Z,6.50
2024-03-12T02:42:12.914Z,3.10
2024-03-12T02:44:39.947Z,3.13
2024-03-12T02:47:06.985Z,3.30
2024-03-12T02:49:34.580Z,3.83
2024-03-12T02:52:01.719Z,3.13
2024-03-12T02:54:28.899Z,2.80
2024-03-12T02:56:56.005Z,3.03
2024-03-12T02:59:25.041Z,3.60
2024-03-12T03:01:52.134Z,3.27
2024-03-12T03:04:19.216Z,2.90
2024-03-12T03:06:46.280Z,2.43
2024-03-12T03:09:13.872Z,3.20
2024-03-12T03:11:40.895Z,3.60
2024-03-12T03:14:07.894Z,2.97
2024-03-12T03:16:34.910Z,3.42
2024-03-12T03:19:02.048Z,2.93
2024-03-12T03:21:29.686Z,2.97
2024-03-12T03:23:57.313Z,3.50
2024-03-12T03:26:24.431Z,4.23
2024-03-12T03:28:51.509Z,5.20
2024-03-12T03:31:18.629Z,4.47
2024-03-12T03:33:48.944Z,3.20
2024-03-12T03:36:16.099Z,2.73
2024-03-12T03:38:43.219Z,4.40
2024-03-12T03:41:10.881Z,3.63
2024-03-12T03:43:40.609Z,5.53
2024-03-12T03:46:08.218Z,4.33
2024-03-12T03:48:35.998Z,4.43
2024-03-12T03:51:03.118Z,3.63
2024-03-12T03:53:30.121Z,3.20
2024-03-12T03:55:57.142Z,3.40
2024-03-12T03:58:24.756Z,3.50
2024-03-12T04:00:51.885Z,4.70
2024-03-12T04:03:19.113Z,4.00
2024-03-12T04:05:46.457Z,3.00
2024-03-12T04:08:13.853Z,4.43
2024-03-12T04:10:43.495Z,3.13
2024-03-12T04:13:10.829Z,3.83
2024-03-12T04:15:38.040Z,3.00
2024-03-12T04:18:06.906Z,3.20
2024-03-12T04:20:34.038Z,3.70
2024-03-12T04:23:02.358Z,3.67
2024-03-12T04:25:29.519Z,4.70
2024-03-12T04:27:56.934Z,2.77
2024-03-12T04:30:24.145Z,3.67
2024-03-12T04:32:51.589Z,2.53
2024-03-12T04:35:18.704Z,3.58
2024-03-12T04:37:45.779Z,2.97
2024-03-12T04:40:13.443Z,4.77
2024-03-12T04:42:44.581Z,4.87
2024-03-12T04:45:11.728Z,3.10
2024-03-12T04:47:42.017Z,3.03
2024-03-12T04:50:09.648Z,4.77
2024-03-12T04:52:36.856Z,3.07
2024-03-12T04:55:06.113Z,3.43
2024-03-12T04:57:33.887Z,3.20
2024-03-12T05:00:01.202Z,3.77
2024-03-12T05:02:28.236Z,2.87
2024-03-12T05:04:55.297Z,3.27
2024-03-12T05:07:22.390Z,4.40
2024-03-12T05:09:49.486Z,3.78
2024-03-12T05:12:16.529Z,3.40
2024-03-12T05:14:44.501Z,3.10
2024-03-12T05:17:11.528Z,3.40
2024-03-12T05:19:38.549Z,3.40
2024-03-12T05:22:05.788Z,3.33
2024-03-12T05:24:35.044Z,4.00
2024-03-12T05:27:04.776Z,2.97
2024-03-12T05:29:43.245Z,5.10
2024-03-12T05:32:19.676Z,3.70
2024-03-12T05:34:53.708Z,4.17
2024-03-12T05:37:30.202Z,4.53
2024-03-12T05:40:16.918Z,3.40
2024-03-12T05:43:03.341Z,3.97
2024-03-12T05:45:49.749Z,3.40
2024-03-12T05:48:16.885Z,3.37
2024-03-12T05:50:43.973Z,4.32
2024-03-12T05:53:11.028Z,3.57
2024-03-12T05:55:39.188Z,5.47
2024-03-12T05:58:06.496Z,3.93
2024-03-12T06:00:33.853Z,3.33
2024-03-12T06:03:00.971Z,3.20
2024-03-12T06:05:28.008Z,4.30
2024-03-12T06:07:55.020Z,4.90
2024-03-12T06:10:22.926Z,5.03
2024-03-12T06:12:50.737Z,3.57
2024-03-12T06:15:17.866Z,3.63
2024-03-12T06:17:45.208Z,4.53
2024-03-12T06:20:13.754Z,3.63
2024-03-12T06:22:41.296Z,3.83
2024-03-12T06:25:10.485Z,3.50
2024-03-12T06:27:42.698Z,4.73
2024-03-12T06:30:10.046Z,5.47
2024-03-12T06:32:38.242Z,7.20
2024-03-12T06:35:05.498Z,3.83
2024-03-12T06:37:32.504Z,5.33
2024-03-12T06:39:59.937Z,3.90
2024-03-12T06:42:30.567Z,3.50
2024-03-12T06:44:58.066Z,5.07
2024-03-12T06:47:29.396Z,5.10
2024-03-12T06:49:56.477Z,5.43
2024-03-12T06:52:23.536Z,3.17
2024-03-12T06:54:51.834Z,3.83
2024-03-12T06:57:22.240Z,3.20
2024-03-12T06:59:49.832Z,3.30
2024-03-12T07:02:18.855Z,4.27
2024-03-12T07:04:48.387Z,3.20
2024-03-12T07:07:22.714Z,4.47
2024-03-12T07:09:50.423Z,3.10
2024-03-12T07:12:19.475Z,4.73
2024-03-12T07:14:55.426Z,3.20
2024-03-12T07:17:22.975Z,3.77
2024-03-12T07:19:50.823Z,2.83
2024-03-12T07:22:19.185Z,6.63
2024-03-12T07:24:46.394Z,2.57
2024-03-12T07:27:14.656Z,4.67
2024-03-12T07:29:44.444Z,3.90
2024-03-12T07:32:11.818Z,3.33
2024-03-12T07:34:40.411Z,4.43
2024-03-12T07:37:08.006Z,2.60
2024-03-12T07:39:38.143Z,3.10
2024-03-12T07:42:14.725Z,4.23
2024-03-12T07:44:42.826Z,3.07
2024-03-12T07:47:11.160Z,3.20
2024-03-12T07:49:38.563Z,3.00
2024-03-12T07:52:06.940Z,2.63
2024-03-12T07:54:34.991Z,2.60
2024-03-12T07:57:02.329Z,2.50
2024-03-12T07:59:32.580Z,4.53
2024-03-12T08:01:59.906Z,3.93
2024-03-12T08:04:27.218Z,2.57
2024-03-12T08:06:54.771Z,3.77
2024-03-12T08:09:22.231Z,2.40
2024-03-12T08:11:50.024Z,2.57
2024-03-12T08:14:18.775Z,3.93
2024-03-12T08:16:45.997Z,2.83
2024-03-12T08:19:13.888Z,2.40
2024-03-12T08:21:41.123Z,3.10
2024-03-12T08:24:10.478Z,2.60
2024-03-12T08:26:38.838Z,4.27
2024-03-12T08:29:06.076Z,2.83
2024-03-12T08:31:38.645Z,2.00
2024-03-12T08:34:16.826Z,3.40
2024-03-12T08:36:44.347Z,2.00
2024-03-12T08:39:14.296Z,3.23
2024-03-12T08:41:41.802Z,2.50
2024-03-12T08:44:09.304Z,2.23
2024-03-12T08:46:36.539Z,2.17
2024-03-12T08:49:06.642Z,2.90
2024-03-12T08:51:38.142Z,2.33
2024-03-12T08:54:05.540Z,2.60
2024-03-12T08:56:32.672Z,1.80
2024-03-12T08:58:59.697Z,1.80
2024-03-12T09:01:26.933Z,2.30
2024-03-12T09:03:54.091Z,2.00
2024-03-12T09:06:21.728Z,1.70
2024-03-12T09:08:50.535Z,3.50
2024-03-12T09:11:21.595Z,2.77
2024-03-12T09:13:48.810Z,2.13
2024-03-12T09:16:15.995Z,2.30
2024-03-12T09:18:46.207Z,2.47
2024-03-12T09:21:13.932Z,3.13
2024-03-12T09:23:52.525Z,3.33
2024-03-12T09:26:24.055Z,3.57
2024-03-12T09:28:51.477Z,4.72
2024-03-12T09:31:20.014Z,2.10
2024-03-12T09:33:47.860Z,3.90
2024-03-12T09:36:15.583Z,4.17
2024-03-12T09:38:45.009Z,5.37
2024-03-12T09:41:13.536Z,2.83
2024-03-12T09:43:41.232Z,5.40
2024-03-12T09:46:08.699Z,4.63
2024-03-12T09:48:37.961Z,3.97
2024-03-12T09:51:06.786Z,4.57
2024-03-12T09:53:33.832Z,3.30
2024-03-12T09:56:06.958Z,5.03
2024-03-12T09:58:35.049Z,9.03
2024-03-12T10:01:05.528Z,3.27
2024-03-12T10:03:33.025Z,4.03
2024-03-12T10:06:00.479Z,3.70
2024-03-12T10:08:32.391Z,3.37
2024-03-12T10:10:59.650Z,2.67
2024-03-12T10:13:26.780Z,3.20
2024-03-12T10:16:01.383Z,4.17
2024-03-12T10:18:29.742Z,4.13
2024-03-12T10:21:02.254Z,2.60
2024-03-12T10:23:34.328Z,4.17
2024-03-12T10:26:10.092Z,2.70
2024-03-12T10:28:38.691Z,4.60
2024-03-12T10:31:11.778Z,4.80
2024-03-12T10:33:42.006Z,8.37
2024-03-12T10:36:12.908Z,4.60
2024-03-12T10:38:43.946Z,4.10
2024-03-12T10:41:22.728Z,4.53
2024-03-12T10:43:56.276Z,3.67
2024-03-12T10:46:25.744Z,4.03
2024-03-12T10:48:53.618Z,8.03
2024-03-12T10:51:20.898Z,6.43
2024-03-12T10:53:54.390Z,9.63
2024-03-12T10:56:22.723Z,3.27
2024-03-12T10:58:50.418Z,4.00
2024-03-12T11:01:21.140Z,2.97
2024-03-12T11:03:51.977Z,4.73
2024-03-12T11:06:20.540Z,5.27
2024-03-12T11:08:48.544Z,3.40
2024-03-12T11:11:15.689Z,6.13
2024-03-12T11:13:43.135Z,3.97
2024-03-12T11:16:14.811Z,4.03
2024-03-12T11:18:42.422Z,4.37
2024-03-12T11:21:14.337Z,3.80
2024-03-12T11:23:42.273Z,7.50
2024-03-12T11:26:09.727Z,4.37
2024-03-12T11:28:50.063Z,4.60
2024-03-12T11:31:18.844Z,3.40
2024-03-12T11:33:50.608Z,3.63
2024-03-12T11:36:22.634Z,3.63
2024-03-12T11:38:53.742Z,3.37
2024-03-12T11:41:21.389Z,5.93
2024-03-12T11:43:48.790Z,3.37
2024-03-12T11:46:36.094Z,3.53
2024-03-12T11:49:03.210Z,2.50
2024-03-12T11:51:50.475Z,2.95
2024-03-12T11:54:37.475Z,3.10
2024-03-12T11:57:04.655Z,4.57
2024-03-12T11:59:33.063Z,5.23
2024-03-12T12:02:02.583Z,5.93
2024-03-12T12:04:30.734Z,7.87
2024-03-12T12:06:58.928Z,9.37
2024-03-12T12:09:27.236Z,10.27
2024-03-12T12:11:54.323Z,14.17
2024-03-12T12:14:21.353Z,13.57
2024-03-12T12:16:53.814Z,9.30
2024-03-12T12:19:27.986Z,9.87
2024-03-12T12:21:59.392Z,8.67
2024-03-12T12:24:26.974Z,12.63
2024-03-12T12:26:54.906Z,12.93
2024-03-12T12:29:22.544Z,14.77
2024-03-12T12:31:52.761Z,15.63
2024-03-12T12:34:21.936Z,14.40
2024-03-12T12:36:51.148Z,15.50
2024-03-12T12:39:18.554Z,16.93
2024-03-12T12:41:47.181Z,12.47
2024-03-12T12:44:18.948Z,13.63
2024-03-12T12:46:47.887Z,14.53
2024-03-12T12:49:19.073Z,11.87
2024-03-12T12:51:47.307Z,11.87
2024-03-12T12:54:17.017Z,11.67
2024-03-12T12:56:47.056Z,10.43
2024-03-12T12:59:14.824Z,9.33
2024-03-12T13:01:43.601Z,12.90
2024-03-12T13:04:24.326Z,14.13
2024-03-12T13:06:53.148Z,11.27
2024-03-12T13:09:30.562Z,14.37
2024-03-12T13:11:58.531Z,13.57
2024-03-12T13:14:27.001Z,13.82
2024-03-12T13:16:54.629Z,15.13
2024-03-12T13:19:23.318Z,14.00
2024-03-12T13:21:51.138Z,14.87
2024-03-12T13:24:20.531Z,19.07
2024-03-12T13:26:48.306Z,17.70
2024-03-12T13:29:16.355Z,16.60
2024-03-12T13:31:44.219Z,17.73
2024-03-12T13:34:11.809Z,19.10
2024-03-12T13:36:38.906Z,21.50
2024-03-12T13:39:07.375Z,17.37
2024-03-12T13:41:35.673Z,20.77
2024-03-12T13:44:02.716Z,20.57
2024-03-12T13:46:29.955Z,19.10
2024-03-12T13:49:11.719Z,20.00
2024-03-12T13:51:38.784Z,21.60
2024-03-12T13:54:09.105Z,18.90
2024-03-12T13:56:37.533Z,20.20
2024-03-12T13:59:05.257Z,17.73
2024-03-12T14:01:32.508Z,19.40
2024-03-12T14:03:59.731Z,19.37
2024-03-12T14:06:27.353Z,25.00
2024-03-12T14:08:54.443Z,20.73
2024-03-12T14:11:21.525Z,20.03
2024-03-12T14:13:50.782Z,15.73
2024-03-12T14:16:20.764Z,16.83
2024-03-12T14:18:50.755Z,15.83
2024-03-12T14:21:18.166Z,14.23
2024-03-12T14:23:45.982Z,12.17
2024-03-12T14:26:13.808Z,13.57
2024-03-12T14:28:41.126Z,11.73
2024-03-12T14:31:08.253Z,10.87
2024-03-12T14:33:35.469Z,11.43
2024-03-12T14:36:02.633Z,11.87
2024-03-12T14:38:29.651Z,12.47
2024-03-12T14:40:57.198Z,13.73
2024-03-12T14:43:26.506Z,20.70
2024-03-12T14:45:53.616Z,13.33
2024-03-12T14:48:20.725Z,14.30
2024-03-12T14:50:48.734Z,15.13
2024-03-12T14:53:15.756Z,13.80
2024-03-12T14:55:42.817Z,14.07
2024-03-12T14:58:09.978Z,13.97
2024-03-12T15:00:40.799Z,13.97
2024-03-12T15:03:08.231Z,13.37
2024-03-12T15:05:38.441Z,19.13
2024-03-12T15:08:05.680Z,17.20
2024-03-12T15:10:33.611Z,16.70
2024-03-12T15:13:00.756Z,15.20
2024-03-12T15:15:27.854Z,17.37
2024-03-12T15:17:56.904Z,18.67
2024-03-12T15:20:25.234Z,21.30
2024-03-12T15:22:52.369Z,21.87
2024-03-12T15:25:23.662Z,16.40
2024-03-12T15:27:50.786Z,16.23
2024-03-12T15:30:18.026Z,16.43
2024-03-12T15:32:46.632Z,15.17
2024-03-12T15:35:14.771Z,19.10
2024-03-12T15:37:43.139Z,20.13
2024-03-12T15:40:10.514Z,16.70
2024-03-12T15:42:40.145Z,18.63
2024-03-12T15:45:11.492Z,20.27
2024-03-12T15:47:43.883Z,18.17
2024-03-12T15:50:12.770Z,16.37
2024-03-12T15:52:39.967Z,20.53
2024-03-12T15:55:09.098Z,17.13
2024-03-12T15:57:38.671Z,19.27
2024-03-12T16:00:08.154Z,20.07
2024-03-12T16:02:35.655Z,20.77
2024-03-12T16:05:06.135Z,21.40
2024-03-12T16:07:37.424Z,26.07
2024-03-12T16:10:09.525Z,20.33
2024-03-12T16:12:37.493Z,20.57
2024-03-12T16:15:06.624Z,22.93
2024-03-12T16:17:35.868Z,20.17
2024-03-12T16:20:12.962Z,19.80
2024-03-12T16:22:41.316Z,21.30
2024-03-12T16:25:08.854Z,19.00
2024-03-12T16:27:36.038Z,21.10
2024-03-12T16:30:04.541Z,18.47
2024-03-12T16:32:31.776Z,19.57
2024-03-12T16:34:58.809Z,18.07
2024-03-12T16:37:25.913Z,21.07
2024-03-12T16:39:52.989Z,20.63
2024-03-12T16:42:21.963Z,21.57
2024-03-12T16:44:50.938Z,17.13
2024-03-12T16:47:17.959Z,20.83
2024-03-12T16:49:46.392Z,22.77
2024-03-12T16:52:13.526Z,25.67
2024-03-12T16:54:40.840Z,17.93
2024-03-12T16:57:08.691Z,19.70
2024-03-12T16:59:35.900Z,22.30
2024-03-12T17:02:07.744Z,19.80
2024-03-12T17:04:34.865Z,19.83
2024-03-12T17:07:08.752Z,22.17
2024-03-12T17:09:39.121Z,22.70
2024-03-12T17:12:06.703Z,22.60
2024-03-12T17:14:36.189Z,21.60
2024-03-12T17:17:07.100Z,24.07
2024-03-12T17:19:38.265Z,21.37
2024-03-12T17:22:11.525Z,25.77
2024-03-12T17:24:40.021Z,24.00
2024-03-12T17:27:11.203Z,22.90
2024-03-12T17:29:38.488Z,20.37
2024-03-12T17:32:11.434Z,25.10
2024-03-12T17:34:39.346Z,22.07
2024-03-12T17:37:07.908Z,21.37
2024-03-12T17:39:36.707Z,23.03
2024-03-12T17:42:03.942Z,23.70
2024-03-12T17:44:31.146Z,21.10
2024-03-12T17:47:00.763Z,21.90
2024-03-12T17:49:30.437Z,24.97
2024-03-12T17:51:57.753Z,20.53
2024-03-12T17:54:25.017Z,23.93
2024-03-12T17:56:52.787Z,22.93
2024-03-12T17:59:20.587Z,21.13
2024-03-12T18:01:48.660Z,22.80
2024-03-12T18:04:16.291Z,21.97
2024-03-12T18:06:45.142Z,22.50
2024-03-12T18:09:13.432Z,22.87
2024-03-12T18:11:42.838Z,22.48
2024-03-12T18:14:10.630Z,20.93
2024-03-12T18:16:38.984Z,20.23
2024-03-12T18:19:06.931Z,19.93
2024-03-12T18:21:34.430Z,24.80
2024-03-12T18:24:01.638Z,20.63
2024-03-12T18:26:29.106Z,23.17
2024-03-12T18:28:57.931Z,21.97
2024-03-12T18:31:25.354Z,19.73
2024-03-12T18:33:52.565Z,18.97
2024-03-12T18:36:19.800Z,16.10
2024-03-12T18:38:46.867Z,17.83
2024-03-12T18:41:14.912Z,16.07
2024-03-12T18:43:42.002Z,15.53
2024-03-12T18:46:09.386Z,15.00
2024-03-12T18:48:36.993Z,15.90
2024-03-12T18:51:05.573Z,17.50
2024-03-12T18:53:32.776Z,15.37
2024-03-12T18:55:59.945Z,13.47
2024-03-12T18:58:27.550Z,15.93
2024-03-12T19:00:56.608Z,15.57
2024-03-12T19:03:26.333Z,13.73
2024-03-12T19:05:54.089Z,16.40
2024-03-12T19:08:21.284Z,17.97
2024-03-12T19:10:48.537Z,14.00
2024-03-12T19:13:17.086Z,16.37
2024-03-12T19:15:45.317Z,15.47
2024-03-12T19:18:13.499Z,14.80
2024-03-12T19:20:41.223Z,13.93
2024-03-12T19:23:10.018Z,16.03
2024-03-12T19:25:37.047Z,16.87
2024-03-12T19:28:04.556Z,16.07
2024-03-12T19:30:31.914Z,14.83
2024-03-12T19:32:59.112Z,18.97
2024-03-12T19:35:26.496Z,19.03
2024-03-12T19:37:54.021Z,20.53
2024-03-12T19:40:22.387Z,20.70
2024-03-12T19:42:50.139Z,17.20
2024-03-12T19:45:23.840Z,19.13
2024-03-12T19:47:55.088Z,17.07
2024-03-12T19:50:25.977Z,14.63
2024-03-12T19:52:53.911Z,16.70
2024-03-12T19:55:25.443Z,19.37
2024-03-12T19:57:56.492Z,16.77
2024-03-12T20:00:26.735Z,17.90
2024-03-12T20:02:57.794Z,17.93
2024-03-12T20:05:25.794Z,17.93
2024-03-12T20:07:53.333Z,23.00
2024-03-12T20:10:20.743Z,23.03
2024-03-12T20:12:55.762Z,33.03
2024-03-12T20:15:24.362Z,26.40
2024-03-12T20:17:54.740Z,22.63
2024-03-12T20:20:23.779Z,18.37
2024-03-12T20:22:54.499Z,19.13
2024-03-12T20:25:23.030Z,18.87
2024-03-12T20:27:54.298Z,17.80
2024-03-12T20:30:23.173Z,18.60
2024-03-12T20:32:53.073Z,18.87
2024-03-12T20:35:20.434Z,20.98
2024-03-12T20:37:48.819Z,17.07
2024-03-12T20:40:16.065Z,21.67
2024-03-12T20:42:43.658Z,18.27
2024-03-12T20:45:11.478Z,20.77
2024-03-12T20:47:41.588Z,17.13
2024-03-12T20:50:09.957Z,20.77
2024-03-12T20:52:39.315Z,19.40
2024-03-12T20:55:09.942Z,18.70
2024-03-12T20:57:37.018Z,18.70
2024-03-12T21:00:17.193Z,23.03
2024-03-12T21:02:46.620Z,18.97
2024-03-12T21:05:13.655Z,19.17
2024-03-12T21:07:40.718Z,20.30
2024-03-12T21:10:08.136Z,18.17
2024-03-12T21:12:35.241Z,17.80
2024-03-12T21:15:07.428Z,21.45
2024-03-12T21:17:35.135Z,18.37
2024-03-12T21:20:12.354Z,20.07
2024-03-12T21:22:39.446Z,20.60
2024-03-12T21:25:07.795Z,19.83
2024-03-12T21:27:35.015Z,16.83
2024-03-12T21:30:06.316Z,18.77
2024-03-12T21:32:34.041Z,19.57
2024-03-12T21:35:01.087Z,18.13
2024-03-12T21:37:28.132Z,19.50
2024-03-12T21:39:55.184Z,18.07
2024-03-12T21:42:23.020Z,18.07
2024-03-12T21:44:52.658Z,19.58
2024-03-12T21:47:20.205Z,19.70
2024-03-12T21:49:47.503Z,18.20
2024-03-12T21:52:16.845Z,16.77
2024-03-12T21:54:47.383Z,20.48
2024-03-12T21:57:14.574Z,15.30
2024-03-12T21:59:42.344Z,18.80
2024-03-12T22:02:09.400Z,19.67
2024-03-12T22:04:36.962Z,16.70
2024-03-12T22:07:06.031Z,14.73
2024-03-12T22:09:34.967Z,14.77
2024-03-12T22:12:02.132Z,16.33
2024-03-12T22:14:29.308Z,16.47
2024-03-12T22:16:56.399Z,11.37
2024-03-12T22:19:23.993Z,12.87
2024-03-12T22:21:51.356Z,13.30
2024-03-12T22:24:23.000Z,14.68
2024-03-12T22:26:54.161Z,16.37
2024-03-12T22:29:21.172Z,14.95
2024-03-12T22:31:49.478Z,15.40
2024-03-12T22:34:16.760Z,12.20
2024-03-12T22:36:45.052Z,13.20
2024-03-12T22:39:14.138Z,14.13
2024-03-12T22:41:48.263Z,12.50
2024-03-12T22:44:15.919Z,11.47
2024-03-12T22:46:45.334Z,11.77
2024-03-12T22:49:12.891Z,11.27
2024-03-12T22:51:41.563Z,10.50
2024-03-12T22:54:09.945Z,11.10
2024-03-12T22:56:37.363Z,10.03
2024-03-12T22:59:05.188Z,11.13
2024-03-12T23:01:32.731Z,8.73
2024-03-12T23:04:02.275Z,9.13
2024-03-12T23:06:32.276Z,9.37
2024-03-12T23:08:59.340Z,10.88
2024-03-12T23:11:28.412Z,7.57
2024-03-12T23:13:55.487Z,8.80
2024-03-12T23:16:22.569Z,9.03
2024-03-12T23:18:54.005Z,7.00
2024-03-12T23:21:21.050Z,7.63
2024-03-12T23:23:48.099Z,7.37
2024-03-12T23:26:17.551Z,11.77
2024-03-12T23:28:44.596Z,7.43
2024-03-12T23:31:11.714Z,8.07
2024-03-12T23:33:40.261Z,8.10
2024-03-12T23:36:08.413Z,8.23
2024-03-12T23:38:35.937Z,7.93
2024-03-12T23:41:03.091Z,9.73
2024-03-12T23:43:31.668Z,10.13
2024-03-12T23:45:59.104Z,9.90
2024-03-12T23:48:27.286Z,12.03
2024-03-12T23:50:54.527Z,11.43
2024-03-12T23:53:21.638Z,9.40
2024-03-12T23:55:48.924Z,9.37
2024-03-12T23:58:16.496Z,8.87
